This is the latest recevied weather packets stored in our database for station/object IZ5MJO-13. If no packets are shown the sender has not sent any weather packets the latest 10 day(s).
| Time | Temp. | Humidity | Pressure | Rain* | Wind** | Luminosity | Snow |
|---|---|---|---|---|---|---|---|
| 1777751382 | 15° C | 36% | 1010.9 hPa | - | - | - | - |
| 1777751027 | 15° C | 36% | 1010.9 hPa | - | - | - | - |
| 1777750963 | 15° C | 37% | 1010.8 hPa | - | - | - | - |
| 1777750957 | 15° C | 36% | 1010.6 hPa | - | - | - | - |
| 1777750949 | 15° C | 38% | 1010.5 hPa | - | - | - | - |
| 1777750942 | 15.56° C | 36% | 1010.3 hPa | - | - | - | - |
| 1777750936 | 16.11° C | 35% | 1010.2 hPa | - | - | - | - |
| 1777750925 | 16.67° C | 35% | 1010 hPa | - | - | - | - |
| 1777750647 | 17.22° C | 33% | 1010.1 hPa | - | - | - | - |
| 1777750553 | 19.44° C | 32% | 1010 hPa | - | - | - | - |
| 1777750411 | 22.22° C | 30% | 1009.8 hPa | - | - | - | - |
| 1777750402 | 23.33° C | 28% | 1009.8 hPa | - | - | - | - |
| 1777750351 | 23.33° C | 28% | 1009.7 hPa | - | - | - | - |
| 1777750307 | 23.89° C | 27% | 1009.8 hPa | - | - | - | - |
| 1777750265 | 25° C | 26% | 1009.8 hPa | - | - | - | - |
| 1777750197 | 26.11° C | 24% | 1009.7 hPa | - | - | - | - |
| 1777750127 | 15° C | 37% | 1010.8 hPa | - | - | - | - |
| 1777749981 | 27.22° C | 23% | 1009.7 hPa | - | - | - | - |
| 1777749921 | 28.89° C | 23% | 1009.8 hPa | - | - | - | - |
| 1777749907 | 28.89° C | 23% | 1009.8 hPa | - | - | - | - |
| 1777749226 | 15° C | 36% | 1010.6 hPa | - | - | - | - |
| 1777749185 | 30° C | 20% | 1010 hPa | - | - | - | - |
| 1777749178 | 29.44° C | 22% | 1010.1 hPa | - | - | - | - |
| 1777749046 | 29.44° C | 22% | 1010.2 hPa | - | - | - | - |
| 1777748325 | 15° C | 38% | 1010.5 hPa | - | - | - | - |
* Rain since midnight (hover to see other rain measurements)
** Current wind speed in m/s (hover to see current wind gust speed)